Atlantic City, New Jersey
Current Conditions -  °F | °C
As of 2:54 AM on Thursday 27 Nov 2014 (Local Time) from KACY Reporting Station
Scattered Clouds Scattered Clouds  
Wind Chill: 28°   Ceiling: Unl
Heat Index: 35°   Visibility: 10mi
Dew Point: 33°   Wind: 9mph
Humidity: 92%   Direction: 290°WNW
Pressure: 29.95"   Gusts: NA
Location:  39.36°N, 74.43°W
Report Text: KACY 270754Z 29008KT 10SM SCT070 02/01 A2995 RMK AO2 SLP141 T00170006
Loading
Personal Weather Stations






























Interactive Weather Map New forecast layout! Learn more

10-Day Weather Forecast

Advertisements
Track Severe Weather on mobile